Time;durP1;ratioP1;P1;durP2;ratioP2;P2;SDS_P1;SDS_P2;PMS_P1;PMS_P2;Temp;Humidity;BMP_temperature;BMP_pressure;BME280_temperature;BME280_humidity;BME280_pressure;Samples;Min_cycle;Max_cycle;Signal;HPM_P1;HPM_P2
2023/06/12 00:00:01;;;;;;;0.00;0.00;;;;;;;;;;1728263;28;20689;-68
2023/06/12 00:00:52;;;;;;;0.00;0.00;;;;;;;;;;1724848;28;20283;-68
2023/06/12 00:01:44;;;;;;;0.00;0.00;;;;;;;;;;1724211;28;20263;-68
2023/06/12 00:02:35;;;;;;;0.00;0.00;;;;;;;;;;1724138;28;20709;-69
2023/06/12 00:03:27;;;;;;;0.00;0.00;;;;;;;;;;1722714;28;20209;-68
2023/06/12 00:04:19;;;;;;;0.00;0.00;;;;;;;;;;1719138;28;20202;-68
2023/06/12 00:05:11;;;;;;;0.00;0.00;;;;;;;;;;1726773;28;20683;-68
2023/06/12 00:06:05;;;;;;;0.00;0.00;;;;;;;;;;1724246;28;20282;-68
2023/06/12 00:06:57;;;;;;;0.00;0.00;;;;;;;;;;1722925;28;20312;-68
2023/06/12 00:07:51;;;;;;;0.00;0.00;;;;;;;;;;1723996;28;20580;-68
2023/06/12 00:08:42;;;;;;;0.00;0.00;;;;;;;;;;1724822;28;20213;-69
2023/06/12 00:09:34;;;;;;;0.00;0.00;;;;;;;;;;1724260;28;20255;-68
2023/06/12 00:10:25;;;;;;;0.00;0.00;;;;;;;;;;1726603;28;20217;-68
2023/06/12 00:11:17;;;;;;;0.00;0.00;;;;;;;;;;1725430;28;20232;-68
2023/06/12 00:12:08;;;;;;;0.00;0.00;;;;;;;;;;1724308;28;20262;-67
2023/06/12 00:12:59;;;;;;;0.00;0.00;;;;;;;;;;1725887;28;20496;-68
2023/06/12 00:13:53;;;;;;;0.00;0.00;;;;;;;;;;1725145;28;20956;-68
2023/06/12 00:14:44;;;;;;;0.00;0.00;;;;;;;;;;1725100;28;20216;-68
2023/06/12 00:15:36;;;;;;;0.00;0.00;;;;;;;;;;1722484;28;20229;-68
2023/06/12 00:16:28;;;;;;;0.00;0.00;;;;;;;;;;1724426;28;20213;-69
2023/06/12 00:17:20;;;;;;;0.00;0.00;;;;;;;;;;1724410;28;20243;-68
2023/06/12 00:18:12;;;;;;;0.00;0.00;;;;;;;;;;1725537;28;20814;-67
2023/06/12 00:19:04;;;;;;;0.00;0.00;;;;;;;;;;1724910;28;20201;-68
2023/06/12 00:19:55;;;;;;;0.00;0.00;;;;;;;;;;1727668;28;20247;-68
2023/06/12 00:20:46;;;;;;;0.00;0.00;;;;;;;;;;1724613;28;20235;-69
2023/06/12 00:21:39;;;;;;;0.00;0.00;;;;;;;;;;1724462;28;20835;-68
2023/06/12 00:22:30;;;;;;;0.00;0.00;;;;;;;;;;1723968;28;20224;-68
2023/06/12 00:23:22;;;;;;;0.00;0.00;;;;;;;;;;1723719;28;20720;-68
2023/06/12 00:24:13;;;;;;;0.00;0.00;;;;;;;;;;1723630;28;20208;-68
2023/06/12 00:25:06;;;;;;;0.00;0.00;;;;;;;;;;1727142;28;20204;-68
2023/06/12 00:25:57;;;;;;;0.00;0.00;;;;;;;;;;1722023;28;20286;-69
2023/06/12 00:26:49;;;;;;;0.00;0.00;;;;;;;;;;1725349;28;20279;-69
2023/06/12 00:27:40;;;;;;;0.00;0.00;;;;;;;;;;1722445;28;20650;-68
2023/06/12 00:28:32;;;;;;;0.03;0.03;;;;;;;;;;1721746;28;20229;-68
2023/06/12 00:29:24;;;;;;;0.00;0.00;;;;;;;;;;1721030;28;20205;-68
2023/06/12 00:30:16;;;;;;;0.00;0.00;;;;;;;;;;1727248;28;20212;-68
2023/06/12 00:31:07;;;;;;;0.00;0.00;;;;;;;;;;1724651;28;20236;-68
2023/06/12 00:31:59;;;;;;;0.00;0.00;;;;;;;;;;1722862;28;20211;-68
2023/06/12 00:32:50;;;;;;;0.00;0.00;;;;;;;;;;1724962;28;20619;-68
2023/06/12 00:33:42;;;;;;;0.00;0.00;;;;;;;;;;1719891;28;20275;-68
2023/06/12 00:34:33;;;;;;;0.00;0.00;;;;;;;;;;1722983;28;20266;-68
2023/06/12 00:35:26;;;;;;;0.00;0.00;;;;;;;;;;1726803;28;20212;-68
2023/06/12 00:36:17;;;;;;;0.00;0.00;;;;;;;;;;1722704;28;20576;-68
2023/06/12 00:37:09;;;;;;;0.00;0.00;;;;;;;;;;1723207;28;20259;-69
2023/06/12 00:38:00;;;;;;;0.00;0.00;;;;;;;;;;1722785;28;20208;-68
2023/06/12 00:38:53;;;;;;;0.00;0.00;;;;;;;;;;1724522;28;20235;-68
2023/06/12 00:39:44;;;;;;;0.00;0.00;;;;;;;;;;1724040;28;20368;-68
2023/06/12 00:40:37;;;;;;;0.00;0.00;;;;;;;;;;1726525;28;20509;-68
2023/06/12 00:41:28;;;;;;;0.00;0.00;;;;;;;;;;1721636;28;20213;-68
2023/06/12 00:42:20;;;;;;;0.00;0.00;;;;;;;;;;1722472;28;20287;-68
2023/06/12 00:43:11;;;;;;;0.00;0.00;;;;;;;;;;1725546;28;20676;-68
2023/06/12 00:44:03;;;;;;;0.00;0.00;;;;;;;;;;1724962;28;20788;-69
2023/06/12 00:44:55;;;;;;;0.00;0.00;;;;;;;;;;1726873;28;20221;-69
2023/06/12 00:45:47;;;;;;;0.00;0.00;;;;;;;;;;1724831;28;20245;-68
2023/06/12 00:46:38;;;;;;;0.00;0.00;;;;;;;;;;1725545;28;20669;-68
2023/06/12 00:47:30;;;;;;;0.00;0.00;;;;;;;;;;1724212;28;20220;-68
2023/06/12 00:48:22;;;;;;;0.00;0.00;;;;;;;;;;1725836;28;20230;-68
2023/06/12 00:49:13;;;;;;;0.00;0.00;;;;;;;;;;1724445;28;20763;-68
2023/06/12 00:50:05;;;;;;;0.00;0.00;;;;;;;;;;1728631;28;20205;-68
2023/06/12 00:50:57;;;;;;;0.00;0.00;;;;;;;;;;1718739;28;20237;-67
2023/06/12 00:51:50;;;;;;;0.00;0.00;;;;;;;;;;1724229;28;20204;-72
2023/06/12 00:52:43;;;;;;;0.00;0.00;;;;;;;;;;1721436;28;20332;-68
2023/06/12 00:53:35;;;;;;;0.00;0.00;;;;;;;;;;1720989;28;20209;-68
2023/06/12 00:54:26;;;;;;;0.00;0.00;;;;;;;;;;1719706;28;20213;-68
2023/06/12 00:55:17;;;;;;;0.00;0.00;;;;;;;;;;1726687;28;20254;-68
2023/06/12 00:56:10;;;;;;;0.00;0.00;;;;;;;;;;1723672;28;20209;-67
2023/06/12 00:57:02;;;;;;;0.00;0.00;;;;;;;;;;1724778;28;20216;-68
2023/06/12 00:57:54;;;;;;;0.00;0.00;;;;;;;;;;1722842;28;20313;-68
2023/06/12 00:58:45;;;;;;;0.00;0.00;;;;;;;;;;1719774;28;20220;-68
2023/06/12 00:59:37;;;;;;;0.00;0.00;;;;;;;;;;1722624;28;20208;-67
2023/06/12 01:00:30;;;;;;;0.00;0.00;;;;;;;;;;1723855;28;20205;-68
2023/06/12 01:01:25;;;;;;;0.00;0.00;;;;;;;;;;1721542;28;20671;-69
2023/06/12 01:02:16;;;;;;;0.00;0.00;;;;;;;;;;1722230;28;20201;-68
2023/06/12 01:03:09;;;;;;;0.00;0.00;;;;;;;;;;1725529;28;20210;-66
2023/06/12 01:04:00;;;;;;;0.00;0.00;;;;;;;;;;1718167;28;20209;-68
2023/06/12 01:04:53;;;;;;;0.00;0.00;;;;;;;;;;1726208;28;20583;-68
2023/06/12 01:05:45;;;;;;;0.00;0.00;;;;;;;;;;1727242;28;20352;-67
2023/06/12 01:06:44;;;;;;;0.00;0.00;;;;;;;;;;1725048;28;20204;-68
2023/06/12 01:07:39;;;;;;;0.00;0.00;;;;;;;;;;1721724;28;20233;-68
2023/06/12 01:08:33;;;;;;;0.00;0.00;;;;;;;;;;1724394;28;20252;-68
2023/06/12 01:09:30;;;;;;;0.00;0.00;;;;;;;;;;1724040;28;20209;-68
2023/06/12 01:10:25;;;;;;;0.00;0.00;;;;;;;;;;1721945;28;20712;-68
2023/06/12 01:11:19;;;;;;;0.00;0.00;;;;;;;;;;1722526;28;20205;-68
2023/06/12 01:12:11;;;;;;;0.00;0.00;;;;;;;;;;1723342;28;20695;-68
2023/06/12 01:13:03;;;;;;;0.00;0.00;;;;;;;;;;1725131;28;20266;-68
2023/06/12 01:13:54;;;;;;;0.00;0.00;;;;;;;;;;1718269;28;20283;-68
2023/06/12 01:14:46;;;;;;;0.00;0.00;;;;;;;;;;1723804;28;20644;-68
2023/06/12 01:15:39;;;;;;;0.00;0.00;;;;;;;;;;1722160;28;20241;-68
2023/06/12 01:16:31;;;;;;;0.00;0.00;;;;;;;;;;1722538;28;20210;-68
2023/06/12 01:17:22;;;;;;;0.00;0.00;;;;;;;;;;1721815;28;20302;-67
2023/06/12 01:18:14;;;;;;;0.00;0.00;;;;;;;;;;1725529;28;20296;-68
2023/06/12 01:19:05;;;;;;;0.00;0.00;;;;;;;;;;1718516;28;20700;-67
2023/06/12 01:19:57;;;;;;;0.00;0.00;;;;;;;;;;1724156;28;20217;-67
2023/06/12 01:20:49;;;;;;;0.00;0.00;;;;;;;;;;1718382;28;20237;-67
2023/06/12 01:21:44;;;;;;;0.00;0.00;;;;;;;;;;1723040;28;20700;-67
2023/06/12 01:22:37;;;;;;;0.00;0.00;;;;;;;;;;1721718;28;20214;-67
2023/06/12 01:23:38;;;;;;;0.00;0.00;;;;;;;;;;1720581;28;20205;-67
2023/06/12 01:24:44;;;;;;;0.00;0.00;;;;;;;;;;1720420;28;20251;-67
2023/06/12 01:25:51;;;;;;;0.00;0.00;;;;;;;;;;1718514;28;20229;-67
2023/06/12 01:26:46;;;;;;;0.00;0.00;;;;;;;;;;1708845;28;20225;-68
2023/06/12 01:27:44;;;;;;;0.00;0.00;;;;;;;;;;1723628;28;20287;-67
2023/06/12 01:28:51;;;;;;;0.00;0.00;;;;;;;;;;1718004;28;20744;-68
2023/06/12 01:29:58;;;;;;;0.00;0.00;;;;;;;;;;1722956;28;20211;-67
2023/06/12 01:31:06;;;;;;;0.00;0.00;;;;;;;;;;1722372;28;20241;-68
2023/06/12 01:32:01;;;;;;;0.00;0.00;;;;;;;;;;1723767;28;20323;-70
2023/06/12 01:32:56;;;;;;;0.00;0.00;;;;;;;;;;1724962;28;20331;-68
2023/06/12 01:33:51;;;;;;;0.00;0.00;;;;;;;;;;1724688;28;20268;-68
2023/06/12 01:34:50;;;;;;;0.00;0.00;;;;;;;;;;1724517;28;20208;-68
2023/06/12 01:35:43;;;;;;;0.00;0.00;;;;;;;;;;1721172;28;20662;-68
2023/06/12 01:36:37;;;;;;;0.00;0.00;;;;;;;;;;1725205;28;20204;-68
2023/06/12 01:37:31;;;;;;;0.00;0.00;;;;;;;;;;1723868;28;21086;-67
2023/06/12 01:38:24;;;;;;;0.00;0.00;;;;;;;;;;1724504;28;20197;-68
2023/06/12 01:39:16;;;;;;;0.00;0.00;;;;;;;;;;1723853;28;20519;-68
2023/06/12 01:40:09;;;;;;;0.00;0.00;;;;;;;;;;1724215;28;20201;-68
2023/06/12 01:41:00;;;;;;;0.00;0.00;;;;;;;;;;1719092;28;20252;-67
2023/06/12 01:41:52;;;;;;;0.00;0.00;;;;;;;;;;1723646;28;20236;-68
2023/06/12 01:42:43;;;;;;;0.00;0.00;;;;;;;;;;1723693;28;20221;-68
2023/06/12 01:43:36;;;;;;;0.00;0.00;;;;;;;;;;1718520;28;20212;-68
2023/06/12 01:44:27;;;;;;;0.00;0.00;;;;;;;;;;1721223;28;20216;-68
2023/06/12 01:45:19;;;;;;;0.00;0.00;;;;;;;;;;1727267;28;20204;-69
2023/06/12 01:46:10;;;;;;;0.00;0.00;;;;;;;;;;1724865;28;20205;-67
2023/06/12 01:47:04;;;;;;;0.00;0.00;;;;;;;;;;1723234;28;20298;-69
2023/06/12 01:47:55;;;;;;;0.00;0.00;;;;;;;;;;1723319;28;20212;-69
2023/06/12 01:48:47;;;;;;;0.00;0.00;;;;;;;;;;1725353;28;20676;-69
2023/06/12 01:49:38;;;;;;;0.00;0.00;;;;;;;;;;1724977;28;20208;-69
2023/06/12 01:50:30;;;;;;;0.00;0.00;;;;;;;;;;1727100;28;20240;-69
2023/06/12 01:51:21;;;;;;;0.00;0.00;;;;;;;;;;1723648;28;20205;-70
2023/06/12 01:52:13;;;;;;;0.00;0.00;;;;;;;;;;1723914;28;20200;-69
2023/06/12 01:53:05;;;;;;;0.00;0.00;;;;;;;;;;1724618;28;20317;-69
2023/06/12 01:53:57;;;;;;;0.00;0.00;;;;;;;;;;1718853;28;20620;-69
2023/06/12 01:54:48;;;;;;;0.00;0.00;;;;;;;;;;1723504;28;20212;-69
2023/06/12 01:55:41;;;;;;;0.00;0.00;;;;;;;;;;1726577;28;20232;-70
2023/06/12 01:56:32;;;;;;;0.00;0.00;;;;;;;;;;1723765;28;20212;-69
2023/06/12 01:57:24;;;;;;;0.00;0.00;;;;;;;;;;1722543;28;20217;-69
2023/06/12 01:58:16;;;;;;;0.00;0.00;;;;;;;;;;1723670;28;20285;-69
2023/06/12 01:59:08;;;;;;;0.00;0.00;;;;;;;;;;1718579;28;20479;-69
2023/06/12 01:59:59;;;;;;;0.00;0.00;;;;;;;;;;1724567;28;20664;-70
2023/06/12 02:00:53;;;;;;;0.00;0.00;;;;;;;;;;1718739;28;20238;-69
2023/06/12 02:01:44;;;;;;;0.00;0.00;;;;;;;;;;1722189;28;20217;-68
2023/06/12 02:02:39;;;;;;;0.00;0.00;;;;;;;;;;1721765;28;20240;-69
2023/06/12 02:03:32;;;;;;;0.00;0.00;;;;;;;;;;1720855;28;20271;-69
2023/06/12 02:04:24;;;;;;;0.00;0.00;;;;;;;;;;1720739;28;20211;-69
2023/06/12 02:05:15;;;;;;;0.00;0.00;;;;;;;;;;1729381;28;20200;-69
2023/06/12 02:06:07;;;;;;;0.00;0.00;;;;;;;;;;1725572;28;20250;-69
2023/06/12 02:06:58;;;;;;;0.00;0.00;;;;;;;;;;1722133;28;20694;-69
2023/06/12 02:07:50;;;;;;;0.00;0.00;;;;;;;;;;1724909;28;20299;-69
2023/06/12 02:08:41;;;;;;;0.00;0.00;;;;;;;;;;1724849;28;20252;-70
2023/06/12 02:09:33;;;;;;;0.00;0.00;;;;;;;;;;1724617;28;20235;-69
2023/06/12 02:10:24;;;;;;;0.00;0.00;;;;;;;;;;1725131;28;20265;-69
2023/06/12 02:11:15;;;;;;;0.00;0.00;;;;;;;;;;1720500;28;20266;-69
2023/06/12 02:12:07;;;;;;;0.00;0.00;;;;;;;;;;1723343;28;20236;-69
2023/06/12 02:12:58;;;;;;;0.00;0.00;;;;;;;;;;1721691;28;20235;-70
2023/06/12 02:13:50;;;;;;;0.00;0.00;;;;;;;;;;1725092;28;20262;-70
2023/06/12 02:14:41;;;;;;;0.00;0.00;;;;;;;;;;1723517;28;20208;-71
2023/06/12 02:15:33;;;;;;;0.00;0.00;;;;;;;;;;1726715;28;20233;-69
2023/06/12 02:16:24;;;;;;;0.00;0.00;;;;;;;;;;1724906;28;20209;-69
2023/06/12 02:17:17;;;;;;;0.00;0.00;;;;;;;;;;1747474;23;20241;-60
2023/06/12 02:18:10;;;;;;;0.00;0.00;;;;;;;;;;1737166;28;20202;-61
2023/06/12 02:19:02;;;;;;;0.00;0.00;;;;;;;;;;1738039;28;20208;-59
2023/06/12 02:19:53;;;;;;;0.00;0.00;;;;;;;;;;1732518;28;20599;-59
2023/06/12 02:20:45;;;;;;;0.00;0.00;;;;;;;;;;1732460;28;20604;-58
2023/06/12 02:21:36;;;;;;;0.00;0.00;;;;;;;;;;1737157;28;20276;-58
2023/06/12 02:22:28;;;;;;;0.00;0.00;;;;;;;;;;1737217;28;20206;-59
2023/06/12 02:23:19;;;;;;;0.00;0.00;;;;;;;;;;1732057;28;20277;-59
2023/06/12 02:24:11;;;;;;;0.00;0.00;;;;;;;;;;1737574;28;20227;-59
2023/06/12 02:25:02;;;;;;;0.00;0.00;;;;;;;;;;1732039;28;20298;-59
2023/06/12 02:25:54;;;;;;;0.00;0.00;;;;;;;;;;1736241;28;20754;-58
2023/06/12 02:26:45;;;;;;;0.00;0.00;;;;;;;;;;1734220;28;20261;-59
2023/06/12 02:27:37;;;;;;;0.00;0.00;;;;;;;;;;1736436;28;20224;-59
2023/06/12 02:28:28;;;;;;;0.00;0.00;;;;;;;;;;1738900;28;20207;-59
2023/06/12 02:29:20;;;;;;;0.00;0.00;;;;;;;;;;1738680;28;20772;-59
2023/06/12 02:30:11;;;;;;;0.00;0.00;;;;;;;;;;1738316;28;20565;-59
2023/06/12 02:31:04;;;;;;;0.00;0.00;;;;;;;;;;1738456;28;20231;-58
2023/06/12 02:31:55;;;;;;;0.00;0.00;;;;;;;;;;1734117;28;20529;-58
2023/06/12 02:32:49;;;;;;;0.00;0.00;;;;;;;;;;1734894;28;20207;-58
2023/06/12 02:33:41;;;;;;;0.00;0.00;;;;;;;;;;1738729;28;20663;-58
2023/06/12 02:34:33;;;;;;;0.00;0.00;;;;;;;;;;1735503;28;20542;-58
2023/06/12 02:35:24;;;;;;;0.00;0.00;;;;;;;;;;1733313;28;21018;-58
2023/06/12 02:36:16;;;;;;;0.00;0.00;;;;;;;;;;1738374;28;20779;-58
2023/06/12 02:37:08;;;;;;;0.00;0.00;;;;;;;;;;1733095;28;20211;-57
2023/06/12 02:38:00;;;;;;;0.00;0.00;;;;;;;;;;1738223;28;20211;-58
2023/06/12 02:38:51;;;;;;;0.00;0.00;;;;;;;;;;1738811;28;20218;-59
2023/06/12 02:39:43;;;;;;;0.00;0.00;;;;;;;;;;1738648;28;20694;-58
2023/06/12 02:40:34;;;;;;;0.00;0.00;;;;;;;;;;1735286;28;20303;-59
2023/06/12 02:41:26;;;;;;;0.00;0.00;;;;;;;;;;1738012;28;20199;-58
2023/06/12 02:42:17;;;;;;;0.00;0.00;;;;;;;;;;1732321;28;20596;-59
2023/06/12 02:43:10;;;;;;;0.00;0.00;;;;;;;;;;1738688;28;20203;-58
2023/06/12 02:44:01;;;;;;;0.00;0.00;;;;;;;;;;1739017;28;20215;-61
2023/06/12 02:44:53;;;;;;;0.00;0.00;;;;;;;;;;1738196;28;20477;-59
2023/06/12 02:45:44;;;;;;;0.00;0.00;;;;;;;;;;1733429;28;20235;-59
2023/06/12 02:46:51;;;;;;;0.00;0.00;;;;;;;;;;1732562;28;20233;-59
2023/06/12 02:47:42;;;;;;;0.00;0.00;;;;;;;;;;1735629;28;20833;-59
2023/06/12 02:48:35;;;;;;;0.00;0.00;;;;;;;;;;1738528;28;20656;-60
2023/06/12 02:49:28;;;;;;;0.00;0.00;;;;;;;;;;1737448;28;20223;-59
2023/06/12 02:50:20;;;;;;;0.00;0.00;;;;;;;;;;1736469;28;20203;-60
2023/06/12 02:51:11;;;;;;;0.00;0.00;;;;;;;;;;1738889;28;20206;-60
2023/06/12 02:52:03;;;;;;;0.00;0.00;;;;;;;;;;1734562;28;20489;-60
2023/06/12 02:52:54;;;;;;;0.00;0.00;;;;;;;;;;1738516;28;20223;-60
2023/06/12 02:53:46;;;;;;;0.00;0.00;;;;;;;;;;1734155;28;20242;-60
2023/06/12 02:54:37;;;;;;;0.00;0.00;;;;;;;;;;1732877;28;20213;-60
2023/06/12 02:55:29;;;;;;;0.00;0.00;;;;;;;;;;1733527;28;20403;-60
2023/06/12 02:56:20;;;;;;;0.00;0.00;;;;;;;;;;1738286;28;20203;-60
2023/06/12 02:57:12;;;;;;;0.00;0.00;;;;;;;;;;1732330;28;20298;-60
2023/06/12 02:58:03;;;;;;;0.00;0.00;;;;;;;;;;1737200;28;20209;-60
2023/06/12 02:58:55;;;;;;;0.00;0.00;;;;;;;;;;1739063;28;20249;-60
2023/06/12 02:59:46;;;;;;;0.00;0.00;;;;;;;;;;1733491;28;20212;-61
2023/06/12 03:00:38;;;;;;;0.00;0.00;;;;;;;;;;1734655;28;20237;-60
2023/06/12 03:01:30;;;;;;;0.00;0.00;;;;;;;;;;1735882;28;20277;-60
2023/06/12 03:02:22;;;;;;;0.00;0.00;;;;;;;;;;1737492;28;20696;-60
2023/06/12 03:03:14;;;;;;;0.00;0.00;;;;;;;;;;1738523;28;20571;-58
2023/06/12 03:04:09;;;;;;;0.00;0.00;;;;;;;;;;1739053;28;20305;-60
2023/06/12 03:05:01;;;;;;;0.00;0.00;;;;;;;;;;1731706;28;20341;-60
2023/06/12 03:05:53;;;;;;;0.00;0.00;;;;;;;;;;1734455;28;20233;-60
2023/06/12 03:06:44;;;;;;;0.00;0.00;;;;;;;;;;1733008;28;20536;-60
2023/06/12 03:07:38;;;;;;;0.00;0.00;;;;;;;;;;1734590;28;20223;-60
2023/06/12 03:08:29;;;;;;;0.00;0.00;;;;;;;;;;1738504;28;20960;-60
2023/06/12 03:09:21;;;;;;;0.00;0.00;;;;;;;;;;1738523;28;20969;-60
2023/06/12 03:10:12;;;;;;;0.00;0.00;;;;;;;;;;1738463;28;20203;-59
2023/06/12 03:11:04;;;;;;;0.00;0.00;;;;;;;;;;1734160;28;20232;-60
2023/06/12 03:11:55;;;;;;;0.00;0.00;;;;;;;;;;1738445;28;20215;-60
2023/06/12 03:12:47;;;;;;;0.00;0.00;;;;;;;;;;1738182;28;20236;-60
2023/06/12 03:13:39;;;;;;;0.00;0.00;;;;;;;;;;1738965;28;20275;-60
2023/06/12 03:14:33;;;;;;;0.00;0.00;;;;;;;;;;1738177;28;20226;-60
2023/06/12 03:15:24;;;;;;;0.00;0.00;;;;;;;;;;1737938;28;20325;-60
2023/06/12 03:16:16;;;;;;;0.00;0.00;;;;;;;;;;1738356;28;20626;-60
2023/06/12 03:17:07;;;;;;;0.00;0.00;;;;;;;;;;1732625;28;20223;-59
2023/06/12 03:18:00;;;;;;;0.00;0.00;;;;;;;;;;1737569;28;20210;-60
2023/06/12 03:18:51;;;;;;;0.00;0.00;;;;;;;;;;1733663;28;20723;-60
2023/06/12 03:19:44;;;;;;;0.00;0.00;;;;;;;;;;1732941;28;20658;-60
2023/06/12 03:20:37;;;;;;;0.00;0.00;;;;;;;;;;1737958;28;20509;-60
2023/06/12 03:21:29;;;;;;;0.00;0.00;;;;;;;;;;1738072;28;20801;-60
2023/06/12 03:22:20;;;;;;;0.00;0.00;;;;;;;;;;1737425;28;20630;-60
2023/06/12 03:23:12;;;;;;;0.00;0.00;;;;;;;;;;1736258;28;20300;-60
2023/06/12 03:24:03;;;;;;;0.00;0.00;;;;;;;;;;1732259;28;20293;-60
2023/06/12 03:24:56;;;;;;;0.00;0.00;;;;;;;;;;1737639;28;20590;-60
2023/06/12 03:25:47;;;;;;;0.00;0.00;;;;;;;;;;1737809;28;20696;-60
2023/06/12 03:26:41;;;;;;;0.00;0.00;;;;;;;;;;1736280;28;20210;-60
2023/06/12 03:27:32;;;;;;;0.00;0.00;;;;;;;;;;1734181;28;20239;-60
2023/06/12 03:28:24;;;;;;;0.00;0.00;;;;;;;;;;1732958;28;20327;-60
2023/06/12 03:29:15;;;;;;;0.00;0.00;;;;;;;;;;1738256;28;20202;-59
2023/06/12 03:30:10;;;;;;;0.00;0.00;;;;;;;;;;1732164;28;20214;-60
2023/06/12 03:31:01;;;;;;;0.00;0.00;;;;;;;;;;1737092;28;20288;-59
2023/06/12 03:31:54;;;;;;;0.00;0.00;;;;;;;;;;1732749;28;20262;-58
2023/06/12 03:32:46;;;;;;;0.00;0.00;;;;;;;;;;1735637;28;20299;-59
2023/06/12 03:33:38;;;;;;;0.00;0.00;;;;;;;;;;1738497;28;20199;-59
2023/06/12 03:34:31;;;;;;;0.00;0.00;;;;;;;;;;1738302;28;20205;-59
2023/06/12 03:35:24;;;;;;;0.00;0.00;;;;;;;;;;1737396;28;20207;-59
2023/06/12 03:36:18;;;;;;;0.00;0.00;;;;;;;;;;1738069;28;20250;-59
2023/06/12 03:37:09;;;;;;;0.00;0.00;;;;;;;;;;1738896;28;20274;-59
2023/06/12 03:38:01;;;;;;;0.00;0.00;;;;;;;;;;1737907;28;20217;-59
2023/06/12 03:38:52;;;;;;;0.00;0.00;;;;;;;;;;1738612;28;20248;-59
2023/06/12 03:39:44;;;;;;;0.00;0.00;;;;;;;;;;1734148;28;20212;-59
2023/06/12 03:40:35;;;;;;;0.00;0.00;;;;;;;;;;1735004;28;20721;-59
2023/06/12 03:41:27;;;;;;;0.00;0.00;;;;;;;;;;1737406;28;20349;-59
2023/06/12 03:42:18;;;;;;;0.00;0.00;;;;;;;;;;1731614;28;20207;-60
2023/06/12 03:43:10;;;;;;;0.00;0.00;;;;;;;;;;1738562;28;20206;-59
2023/06/12 03:44:01;;;;;;;0.00;0.00;;;;;;;;;;1738768;28;20290;-60
2023/06/12 03:44:53;;;;;;;0.00;0.00;;;;;;;;;;1737406;28;20683;-60
2023/06/12 03:45:44;;;;;;;0.00;0.00;;;;;;;;;;1731160;28;20235;-59
2023/06/12 03:46:36;;;;;;;0.00;0.00;;;;;;;;;;1735553;28;20238;-60
2023/06/12 03:47:27;;;;;;;0.00;0.00;;;;;;;;;;1733627;28;20486;-60
2023/06/12 03:48:19;;;;;;;0.00;0.00;;;;;;;;;;1738305;28;20680;-60
2023/06/12 03:49:10;;;;;;;0.00;0.00;;;;;;;;;;1739070;28;20210;-60
2023/06/12 03:50:02;;;;;;;0.00;0.00;;;;;;;;;;1731841;28;20329;-60
2023/06/12 03:50:53;;;;;;;0.00;0.00;;;;;;;;;;1736256;28;20710;-60
2023/06/12 03:51:46;;;;;;;0.00;0.00;;;;;;;;;;1735769;28;20572;-59
2023/06/12 03:52:38;;;;;;;0.00;0.00;;;;;;;;;;1733491;28;20302;-60
2023/06/12 03:53:30;;;;;;;0.00;0.00;;;;;;;;;;1738528;28;20198;-60
2023/06/12 03:54:21;;;;;;;0.00;0.00;;;;;;;;;;1736947;28;20216;-60
2023/06/12 03:55:13;;;;;;;0.00;0.00;;;;;;;;;;1733349;28;20302;-60
2023/06/12 03:56:04;;;;;;;0.00;0.00;;;;;;;;;;1733977;28;20678;-60
2023/06/12 03:56:56;;;;;;;0.00;0.00;;;;;;;;;;1734103;28;20621;-60
2023/06/12 03:57:47;;;;;;;0.00;0.00;;;;;;;;;;1735513;28;20689;-60
2023/06/12 03:58:39;;;;;;;0.00;0.00;;;;;;;;;;1734606;28;20233;-59
2023/06/12 03:59:30;;;;;;;0.00;0.00;;;;;;;;;;1736004;28;20206;-60
2023/06/12 04:00:23;;;;;;;0.00;0.00;;;;;;;;;;1731688;28;20262;-60
2023/06/12 04:01:14;;;;;;;0.00;0.00;;;;;;;;;;1738445;28;20775;-59
2023/06/12 04:02:06;;;;;;;0.00;0.00;;;;;;;;;;1738401;28;20365;-60
2023/06/12 04:02:57;;;;;;;0.00;0.00;;;;;;;;;;1734570;28;20306;-59
2023/06/12 04:03:49;;;;;;;0.00;0.00;;;;;;;;;;1736488;28;20209;-60
2023/06/12 04:04:40;;;;;;;0.00;0.00;;;;;;;;;;1738052;28;20536;-60
2023/06/12 04:05:33;;;;;;;0.00;0.00;;;;;;;;;;1736325;28;20237;-60
2023/06/12 04:06:25;;;;;;;0.00;0.00;;;;;;;;;;1735452;28;20378;-59
2023/06/12 04:07:18;;;;;;;0.00;0.00;;;;;;;;;;1738528;28;20240;-58
2023/06/12 04:08:09;;;;;;;0.00;0.00;;;;;;;;;;1738596;28;20263;-60
2023/06/12 04:09:01;;;;;;;0.00;0.00;;;;;;;;;;1738755;28;20218;-60
2023/06/12 04:09:52;;;;;;;0.00;0.00;;;;;;;;;;1733305;28;20216;-60
2023/06/12 04:10:45;;;;;;;0.00;0.00;;;;;;;;;;1734842;28;20221;-60
2023/06/12 04:11:38;;;;;;;0.00;0.00;;;;;;;;;;1736715;28;20214;-60
2023/06/12 04:12:30;;;;;;;0.00;0.00;;;;;;;;;;1733438;28;20702;-60
2023/06/12 04:13:21;;;;;;;0.00;0.00;;;;;;;;;;1738266;28;20202;-60
2023/06/12 04:14:14;;;;;;;0.00;0.00;;;;;;;;;;1739123;28;20331;-60
2023/06/12 04:15:05;;;;;;;0.00;0.00;;;;;;;;;;1731492;28;20220;-60
2023/06/12 04:15:57;;;;;;;0.00;0.00;;;;;;;;;;1732587;28;20750;-60
2023/06/12 04:16:48;;;;;;;0.00;0.00;;;;;;;;;;1734949;28;20219;-61
2023/06/12 04:17:40;;;;;;;0.00;0.00;;;;;;;;;;1734398;28;20756;-60
2023/06/12 04:18:32;;;;;;;0.00;0.00;;;;;;;;;;1736614;28;20205;-60
2023/06/12 04:19:25;;;;;;;0.00;0.00;;;;;;;;;;1732825;28;20328;-60
2023/06/12 04:20:17;;;;;;;0.00;0.00;;;;;;;;;;1731034;28;20217;-59
2023/06/12 04:21:09;;;;;;;0.00;0.00;;;;;;;;;;1738258;28;20211;-60
2023/06/12 04:22:01;;;;;;;0.00;0.00;;;;;;;;;;1732911;28;20222;-60
2023/06/12 04:22:56;;;;;;;0.00;0.00;;;;;;;;;;1736163;28;20219;-59
2023/06/12 04:23:47;;;;;;;0.00;0.00;;;;;;;;;;1735779;28;20456;-60
2023/06/12 04:24:42;;;;;;;0.00;0.00;;;;;;;;;;1736333;28;20588;-60
2023/06/12 04:25:33;;;;;;;0.00;0.00;;;;;;;;;;1732999;28;20263;-59
2023/06/12 04:26:26;;;;;;;0.00;0.00;;;;;;;;;;1735958;28;20534;-60
2023/06/12 04:27:17;;;;;;;0.00;0.00;;;;;;;;;;1731760;28;20206;-58
2023/06/12 04:28:13;;;;;;;0.00;0.00;;;;;;;;;;1733955;28;20322;-59
2023/06/12 04:29:04;;;;;;;0.00;0.00;;;;;;;;;;1737857;28;20215;-59
2023/06/12 04:29:57;;;;;;;0.00;0.00;;;;;;;;;;1737829;28;20602;-60
2023/06/12 04:30:49;;;;;;;0.00;0.00;;;;;;;;;;1737487;28;20241;-60
2023/06/12 04:31:41;;;;;;;0.00;0.00;;;;;;;;;;1732243;28;20223;-60
2023/06/12 04:32:33;;;;;;;0.00;0.00;;;;;;;;;;1732961;28;20686;-59
2023/06/12 04:33:25;;;;;;;0.00;0.00;;;;;;;;;;1732137;28;20678;-59
2023/06/12 04:34:16;;;;;;;0.00;0.00;;;;;;;;;;1738317;28;20199;-59
2023/06/12 04:35:08;;;;;;;0.00;0.00;;;;;;;;;;1738651;28;20211;-60
2023/06/12 04:36:01;;;;;;;0.00;0.00;;;;;;;;;;1736933;28;20230;-59
2023/06/12 04:36:53;;;;;;;0.00;0.00;;;;;;;;;;1734126;28;20334;-59
2023/06/12 04:37:48;;;;;;;0.00;0.00;;;;;;;;;;1734485;28;20230;-59
2023/06/12 04:38:41;;;;;;;0.00;0.00;;;;;;;;;;1738258;28;20534;-59
2023/06/12 04:39:32;;;;;;;0.00;0.00;;;;;;;;;;1735783;28;20222;-59
2023/06/12 04:40:24;;;;;;;0.00;0.00;;;;;;;;;;1732901;28;20299;-59
2023/06/12 04:41:16;;;;;;;0.00;0.00;;;;;;;;;;1738311;28;20974;-59
2023/06/12 04:42:08;;;;;;;0.00;0.00;;;;;;;;;;1731390;28;20217;-59
2023/06/12 04:42:59;;;;;;;0.00;0.00;;;;;;;;;;1736706;28;20621;-59
2023/06/12 04:43:58;;;;;;;0.00;0.00;;;;;;;;;;1738197;28;20295;-59
2023/06/12 04:44:49;;;;;;;0.00;0.00;;;;;;;;;;1737864;28;20249;-59
2023/06/12 04:45:44;;;;;;;0.00;0.00;;;;;;;;;;1737508;28;20226;-59
2023/06/12 04:46:35;;;;;;;0.00;0.00;;;;;;;;;;1734758;28;20203;-59
2023/06/12 04:47:28;;;;;;;0.00;0.00;;;;;;;;;;1731613;28;20784;-59
2023/06/12 04:48:20;;;;;;;0.00;0.00;;;;;;;;;;1737454;28;20427;-59
2023/06/12 04:49:13;;;;;;;0.00;0.00;;;;;;;;;;1738449;28;20211;-59
2023/06/12 04:50:05;;;;;;;0.00;0.00;;;;;;;;;;1731018;28;20220;-59
2023/06/12 04:50:58;;;;;;;0.00;0.00;;;;;;;;;;1735315;28;20953;-59
2023/06/12 04:51:49;;;;;;;0.00;0.00;;;;;;;;;;1734275;28;20638;-59
2023/06/12 04:52:41;;;;;;;0.00;0.00;;;;;;;;;;1733867;28;20215;-59
2023/06/12 04:53:32;;;;;;;0.00;0.00;;;;;;;;;;1738036;28;20246;-59
2023/06/12 04:54:25;;;;;;;0.00;0.00;;;;;;;;;;1737176;28;20211;-59
2023/06/12 04:55:20;;;;;;;0.00;0.00;;;;;;;;;;1738204;28;20204;-60
2023/06/12 04:56:12;;;;;;;0.00;0.00;;;;;;;;;;1735056;28;20251;-59
2023/06/12 04:57:04;;;;;;;0.00;0.00;;;;;;;;;;1732422;28;20916;-59
2023/06/12 04:57:57;;;;;;;0.00;0.00;;;;;;;;;;1735263;28;20326;-59
2023/06/12 04:58:49;;;;;;;0.00;0.00;;;;;;;;;;1737822;28;20216;-59
2023/06/12 04:59:42;;;;;;;0.00;0.00;;;;;;;;;;1736238;28;20242;-59
2023/06/12 05:00:33;;;;;;;0.00;0.00;;;;;;;;;;1734628;28;20609;-59
2023/06/12 05:01:25;;;;;;;0.00;0.00;;;;;;;;;;1737308;28;20249;-59
2023/06/12 05:02:16;;;;;;;0.00;0.00;;;;;;;;;;1736534;28;20535;-59
2023/06/12 05:03:08;;;;;;;0.00;0.00;;;;;;;;;;1737466;28;20664;-59
2023/06/12 05:03:59;;;;;;;0.00;0.00;;;;;;;;;;1738127;28;20624;-59
2023/06/12 05:04:51;;;;;;;0.00;0.00;;;;;;;;;;1737264;28;20226;-59
2023/06/12 05:05:42;;;;;;;0.00;0.00;;;;;;;;;;1737241;28;20239;-59
2023/06/12 05:06:37;;;;;;;0.00;0.00;;;;;;;;;;1735399;28;20728;-59
2023/06/12 05:07:28;;;;;;;0.00;0.00;;;;;;;;;;1732107;28;20715;-59
2023/06/12 05:08:20;;;;;;;0.00;0.00;;;;;;;;;;1737332;28;20195;-59
2023/06/12 05:09:12;;;;;;;0.00;0.00;;;;;;;;;;1732519;28;20208;-59
2023/06/12 05:10:06;;;;;;;0.00;0.00;;;;;;;;;;1731450;28;20741;-59
2023/06/12 05:10:57;;;;;;;0.00;0.00;;;;;;;;;;1735295;28;20630;-59
2023/06/12 05:11:49;;;;;;;0.00;0.00;;;;;;;;;;1734751;28;20656;-59
2023/06/12 05:12:40;;;;;;;0.00;0.00;;;;;;;;;;1737643;28;20241;-60
2023/06/12 05:13:32;;;;;;;0.00;0.00;;;;;;;;;;1737747;28;20196;-59